createdAt,value
2022-10-02T00:01:20.041Z,17.66
2022-10-02T00:06:49.135Z,17.70
2022-10-02T00:12:17.814Z,17.72
2022-10-02T00:17:46.033Z,17.73
2022-10-02T00:23:19.075Z,17.69
2022-10-02T00:28:50.430Z,17.64
2022-10-02T00:34:27.126Z,17.49
2022-10-02T00:40:04.258Z,17.41
2022-10-02T00:45:46.201Z,17.36
2022-10-02T00:51:21.336Z,17.36
2022-10-02T00:56:53.979Z,17.38
2022-10-02T01:02:45.862Z,17.36
2022-10-02T01:08:09.792Z,17.38
2022-10-02T01:13:35.561Z,17.33
2022-10-02T01:19:00.215Z,17.33
2022-10-02T01:24:30.788Z,17.36
2022-10-02T01:30:01.197Z,17.36
2022-10-02T01:35:32.643Z,17.35
2022-10-02T01:40:57.245Z,17.35
2022-10-02T01:46:32.576Z,17.39
2022-10-02T01:52:11.538Z,17.38
2022-10-02T01:57:55.348Z,17.40
2022-10-02T02:03:25.211Z,17.34
2022-10-02T02:09:02.165Z,17.27
2022-10-02T02:14:34.472Z,17.25
2022-10-02T02:20:03.864Z,17.19
2022-10-02T02:25:33.257Z,17.13
2022-10-02T02:30:59.265Z,17.12
2022-10-02T02:36:30.031Z,17.16
2022-10-02T02:42:01.163Z,17.16
2022-10-02T02:47:30.272Z,17.21
2022-10-02T02:53:03.168Z,17.22
2022-10-02T02:58:32.594Z,17.22
2022-10-02T03:03:57.112Z,17.23
2022-10-02T03:09:25.504Z,17.27
2022-10-02T03:15:13.675Z,17.30
2022-10-02T03:20:44.145Z,17.33
2022-10-02T03:26:17.788Z,17.38
2022-10-02T03:31:43.544Z,17.41
2022-10-02T03:37:09.097Z,17.48
2022-10-02T03:42:36.850Z,17.51
2022-10-02T03:48:01.258Z,17.53
2022-10-02T03:53:30.837Z,17.48
2022-10-02T03:59:01.598Z,17.47
2022-10-02T04:04:30.745Z,17.48
2022-10-02T04:09:59.952Z,17.53
2022-10-02T04:15:31.988Z,17.56
2022-10-02T04:21:01.205Z,17.64
2022-10-02T04:26:31.024Z,17.73
2022-10-02T04:32:08.373Z,17.79
2022-10-02T04:37:46.349Z,17.82
2022-10-02T04:43:23.339Z,17.89
2022-10-02T04:49:05.463Z,17.97
2022-10-02T04:54:53.108Z,17.87
2022-10-02T05:00:20.981Z,17.91
2022-10-02T05:06:07.146Z,17.98
2022-10-02T05:11:45.509Z,17.98
2022-10-02T05:17:27.511Z,17.90
2022-10-02T05:23:16.667Z,17.94
2022-10-02T05:28:58.965Z,17.97
2022-10-02T05:34:35.839Z,18.15
2022-10-02T05:40:10.557Z,18.84
2022-10-02T05:45:38.965Z,18.84
2022-10-02T05:51:08.072Z,18.80
2022-10-02T05:56:41.973Z,18.90
2022-10-02T06:02:18.750Z,18.79
2022-10-02T06:07:48.379Z,18.76
2022-10-02T06:13:22.712Z,18.86
2022-10-02T06:18:52.260Z,18.85
2022-10-02T06:24:26.336Z,18.89
2022-10-02T06:29:55.485Z,18.86
2022-10-02T06:35:33.379Z,19.04
2022-10-02T06:41:08.697Z,19.15
2022-10-02T06:46:43.176Z,19.35
2022-10-02T06:52:20.253Z,19.20
2022-10-02T06:58:01.272Z,19.20
2022-10-02T07:03:49.527Z,19.26
2022-10-02T07:09:53.136Z,19.26
2022-10-02T07:15:37.093Z,19.16
2022-10-02T07:21:11.249Z,19.11
2022-10-02T07:26:47.738Z,19.04
2022-10-02T07:32:41.854Z,19.01
2022-10-02T07:38:43.368Z,19.00
2022-10-02T07:44:20.474Z,18.97
2022-10-02T07:49:52.791Z,18.95
2022-10-02T07:55:21.083Z,18.83
2022-10-02T08:00:50.961Z,18.51
2022-10-02T08:06:16.918Z,18.17
2022-10-02T08:11:50.333Z,17.96
2022-10-02T08:17:27.663Z,17.71
2022-10-02T08:22:54.693Z,17.37
2022-10-02T08:28:26.811Z,17.17
2022-10-02T08:33:51.999Z,17.12
2022-10-02T08:39:57.454Z,17.06
2022-10-02T08:45:58.025Z,17.02
2022-10-02T08:52:14.125Z,16.95
2022-10-02T08:58:13.072Z,16.90
2022-10-02T09:04:20.203Z,16.83
2022-10-02T09:10:29.954Z,16.72
2022-10-02T09:16:08.880Z,16.69
2022-10-02T09:21:51.377Z,16.74
2022-10-02T09:27:37.659Z,16.77
2022-10-02T09:33:40.974Z,16.77
2022-10-02T09:39:45.278Z,16.83
2022-10-02T09:45:45.738Z,16.73
2022-10-02T09:51:41.900Z,16.63
2022-10-02T09:57:43.966Z,16.61
2022-10-02T10:03:38.310Z,16.58
2022-10-02T10:09:40.942Z,16.59
2022-10-02T10:15:42.301Z,16.60
2022-10-02T10:21:51.974Z,16.70
2022-10-02T10:27:43.177Z,16.63
2022-10-02T10:33:41.285Z,16.59
2022-10-02T10:39:30.662Z,16.53
2022-10-02T10:45:28.097Z,16.56
2022-10-02T10:51:03.895Z,16.57
2022-10-02T10:56:38.893Z,16.54
2022-10-02T11:02:29.774Z,16.41
2022-10-02T11:08:10.977Z,16.37
2022-10-02T11:13:59.370Z,16.26
2022-10-02T11:19:42.950Z,16.30
2022-10-02T11:25:29.108Z,16.32
2022-10-02T11:31:06.728Z,16.39
2022-10-02T11:37:00.790Z,16.50
2022-10-02T11:43:03.320Z,16.60
2022-10-02T11:48:49.785Z,16.64
2022-10-02T11:54:29.517Z,16.63
2022-10-02T12:00:10.511Z,16.75
2022-10-02T12:05:55.360Z,16.68
2022-10-02T12:11:32.532Z,16.48
2022-10-02T12:17:13.156Z,16.45
2022-10-02T12:23:05.449Z,16.33
2022-10-02T12:28:39.685Z,16.28
2022-10-02T12:34:15.268Z,16.24
2022-10-02T12:39:48.172Z,16.17
2022-10-02T12:45:48.389Z,16.12
2022-10-02T12:51:35.648Z,16.00
2022-10-02T12:57:48.911Z,15.86
2022-10-02T13:04:01.025Z,15.86
2022-10-02T13:09:35.748Z,15.77
2022-10-02T13:15:27.404Z,15.74
2022-10-02T13:21:06.199Z,15.71
2022-10-02T13:26:38.138Z,15.77
2022-10-02T13:32:22.682Z,15.65
2022-10-02T13:38:01.089Z,15.67
2022-10-02T13:43:57.800Z,15.66
2022-10-02T13:49:38.048Z,15.72
2022-10-02T13:55:20.111Z,15.57
2022-10-02T14:01:00.160Z,15.38
2022-10-02T14:06:30.318Z,15.34
2022-10-02T14:12:10.477Z,15.31
2022-10-02T14:17:43.059Z,15.12
2022-10-02T14:23:22.000Z,15.13
2022-10-02T14:29:17.526Z,15.18
2022-10-02T14:35:09.664Z,15.19
2022-10-02T14:40:47.149Z,15.17
2022-10-02T14:46:36.125Z,15.13
2022-10-02T14:52:18.004Z,15.12
2022-10-02T14:57:57.993Z,15.09
2022-10-02T15:03:55.555Z,14.94
2022-10-02T15:09:24.677Z,14.87
2022-10-02T15:15:03.727Z,14.76
2022-10-02T15:20:40.570Z,14.70
2022-10-02T15:26:17.181Z,14.61
2022-10-02T15:32:04.082Z,14.53
2022-10-02T15:37:41.029Z,14.48
2022-10-02T15:43:27.222Z,14.43
2022-10-02T15:49:05.867Z,14.42
2022-10-02T15:54:51.077Z,14.41
2022-10-02T16:00:18.289Z,14.48
2022-10-02T16:05:51.704Z,14.43
2022-10-02T16:11:36.151Z,14.38
2022-10-02T16:17:26.850Z,14.45
2022-10-02T16:23:07.127Z,14.28
2022-10-02T16:28:51.106Z,14.30
2022-10-02T16:34:29.981Z,14.23
2022-10-02T16:40:00.735Z,14.19
2022-10-02T16:45:50.358Z,13.99
2022-10-02T16:51:26.775Z,13.66
2022-10-02T16:56:57.238Z,13.40
2022-10-02T17:02:34.713Z,13.26
2022-10-02T17:08:05.287Z,13.10
2022-10-02T17:13:37.448Z,12.88
2022-10-02T17:19:16.659Z,12.86
2022-10-02T17:24:53.912Z,12.73
2022-10-02T17:30:23.853Z,12.59
2022-10-02T17:35:56.296Z,12.55
2022-10-02T17:41:48.980Z,12.52
2022-10-02T17:47:32.787Z,12.48
2022-10-02T17:53:30.488Z,12.40
2022-10-02T17:59:07.134Z,12.23
2022-10-02T18:04:46.775Z,12.21
2022-10-02T18:10:25.057Z,12.18
2022-10-02T18:16:08.578Z,12.24
2022-10-02T18:21:42.301Z,12.11
2022-10-02T18:27:27.346Z,12.09
2022-10-02T18:33:09.607Z,12.19
2022-10-02T18:38:55.945Z,12.08
2022-10-02T18:44:45.195Z,12.08
2022-10-02T18:50:27.988Z,11.88
2022-10-02T18:56:05.568Z,11.85
2022-10-02T19:01:51.822Z,11.87
2022-10-02T19:07:20.721Z,11.86
2022-10-02T19:12:45.292Z,11.78
2022-10-02T19:18:19.140Z,11.86
2022-10-02T19:23:52.238Z,11.80
2022-10-02T19:29:27.378Z,11.72
2022-10-02T19:35:02.209Z,11.53
2022-10-02T19:40:34.418Z,11.50
2022-10-02T19:46:04.100Z,11.51
2022-10-02T19:51:43.492Z,11.53
2022-10-02T19:57:14.860Z,11.41
2022-10-02T20:02:45.483Z,11.29
2022-10-02T20:08:17.907Z,11.28
2022-10-02T20:13:49.251Z,11.39
2022-10-02T20:19:17.968Z,11.29
2022-10-02T20:24:51.433Z,11.24
2022-10-02T20:30:17.906Z,11.18
2022-10-02T20:35:46.126Z,11.19
2022-10-02T20:41:19.615Z,11.06
2022-10-02T20:47:22.056Z,11.05
2022-10-02T20:53:20.569Z,11.04
2022-10-02T20:59:08.374Z,11.09
2022-10-02T21:05:27.156Z,11.01
2022-10-02T21:11:15.076Z,11.04
2022-10-02T21:17:14.225Z,10.90
2022-10-02T21:23:09.074Z,10.78
2022-10-02T21:29:08.307Z,10.88
2022-10-02T21:34:48.115Z,10.88
2022-10-02T21:40:48.445Z,11.00
2022-10-02T21:46:45.222Z,10.96
2022-10-02T21:52:48.541Z,10.86
2022-10-02T21:58:45.704Z,10.96
2022-10-02T22:04:40.446Z,10.98
2022-10-02T22:10:15.607Z,11.05
2022-10-02T22:15:48.494Z,11.12
2022-10-02T22:21:38.095Z,10.79
2022-10-02T22:27:19.186Z,10.78
2022-10-02T22:33:12.152Z,10.56
2022-10-02T22:38:38.496Z,10.45
2022-10-02T22:44:10.341Z,10.59
2022-10-02T22:49:44.261Z,10.30
2022-10-02T22:55:15.393Z,10.49
2022-10-02T23:00:55.371Z,10.82
2022-10-02T23:06:30.619Z,10.92
2022-10-02T23:12:06.485Z,10.92
2022-10-02T23:17:38.662Z,10.98
2022-10-02T23:23:14.826Z,10.89
2022-10-02T23:28:46.949Z,10.79
2022-10-02T23:34:25.016Z,10.76
2022-10-02T23:39:59.076Z,10.72
2022-10-02T23:45:30.753Z,10.72
2022-10-02T23:51:05.523Z,10.77
2022-10-02T23:57:01.973Z,10.83
